Time;durP1;ratioP1;P1;durP2;ratioP2;P2;SDS_P1;SDS_P2;PMS_P1;PMS_P2;Temp;Humidity;BMP_temperature;BMP_pressure;BME280_temperature;BME280_humidity;BME280_pressure;Samples;Min_cycle;Max_cycle;Signal;HPM_P1;HPM_P2
2023/07/17 00:00:42;;;;;;;4.80;3.47;;;;;;;17.13;80.20;100806.63;4884731;29;20040;-79
2023/07/17 00:03:12;;;;;;;4.40;3.30;;;;;;;17.13;80.41;100811.97;4881411;29;20038;-80
2023/07/17 00:05:40;;;;;;;3.30;2.90;;;;;;;17.15;80.78;100814.56;4867426;29;20052;-80
2023/07/17 00:08:07;;;;;;;4.93;3.17;;;;;;;17.16;80.49;100800.31;4846526;29;20508;-82
2023/07/17 00:10:34;;;;;;;4.57;3.72;;;;;;;17.13;80.33;100795.97;4848981;29;20100;-81
2023/07/17 00:13:01;;;;;;;5.53;3.45;;;;;;;17.09;80.58;100801.53;4843006;29;20445;-80
2023/07/17 00:15:27;;;;;;;5.57;3.58;;;;;;;17.07;80.96;100800.72;4861879;29;20140;-81
2023/07/17 00:17:54;;;;;;;4.15;3.35;;;;;;;17.07;81.19;100806.94;4843354;29;20061;-81
2023/07/17 00:20:21;;;;;;;5.07;3.80;;;;;;;17.06;82.05;100805.19;4847356;29;20049;-79
2023/07/17 00:22:47;;;;;;;6.13;3.97;;;;;;;16.99;82.41;100806.41;4848131;29;20041;-80
2023/07/17 00:25:14;;;;;;;4.05;3.65;;;;;;;16.95;82.54;100812.81;4873667;29;20457;-81
2023/07/17 00:27:41;;;;;;;5.28;3.45;;;;;;;16.94;82.63;100800.41;4854083;29;20051;-80
2023/07/17 00:30:08;;;;;;;4.63;3.50;;;;;;;16.89;83.21;100794.38;4876052;29;20678;-82
2023/07/17 00:32:35;;;;;;;4.72;3.58;;;;;;;16.91;83.17;100799.69;4848626;29;20047;-80
2023/07/17 00:35:01;;;;;;;5.80;3.75;;;;;;;16.93;83.52;100798.66;4872839;29;20045;-81
2023/07/17 00:37:28;;;;;;;5.97;4.03;;;;;;;16.89;83.97;100797.91;4860736;29;20041;-81
2023/07/17 00:39:55;;;;;;;4.60;3.80;;;;;;;16.84;85.07;100799.06;4877257;29;20041;-79
2023/07/17 00:42:21;;;;;;;7.10;3.85;;;;;;;16.75;85.23;100791.47;4861844;29;20881;-81
2023/07/17 00:44:48;;;;;;;5.60;4.10;;;;;;;16.74;84.97;100800.44;4841550;29;20166;-80
2023/07/17 00:47:15;;;;;;;5.43;4.07;;;;;;;16.70;85.35;100799.66;4875792;29;20037;-81
2023/07/17 00:49:42;;;;;;;3.72;3.33;;;;;;;16.61;85.89;100806.25;4883773;29;20046;-81
2023/07/17 00:52:10;;;;;;;6.07;4.05;;;;;;;16.58;86.52;100805.53;4841784;29;20170;-81
2023/07/17 00:54:39;;;;;;;3.75;3.30;;;;;;;16.60;86.95;100809.84;4850802;29;20131;-79
2023/07/17 00:57:06;;;;;;;5.70;3.90;;;;;;;16.57;87.79;100806.47;4871473;29;20139;-81
2023/07/17 00:59:33;;;;;;;4.15;3.75;;;;;;;16.50;87.99;100811.19;4869853;29;20042;-81
2023/07/17 01:02:00;;;;;;;5.10;3.97;;;;;;;16.44;88.77;100814.09;4854317;29;20050;-80
2023/07/17 01:04:27;;;;;;;4.57;3.40;;;;;;;16.43;89.26;100803.50;4843554;29;20050;-81
2023/07/17 01:06:53;;;;;;;4.43;3.67;;;;;;;16.39;89.55;100804.53;4870129;29;20452;-79
2023/07/17 01:09:21;;;;;;;5.15;4.65;;;;;;;16.36;90.40;100808.22;4857420;29;20128;-81
2023/07/17 01:11:48;;;;;;;3.85;3.45;;;;;;;16.36;90.70;100794.03;4863591;29;20048;-81
2023/07/17 01:14:16;;;;;;;6.18;3.72;;;;;;;16.38;91.08;100801.00;4880863;29;20060;-81
2023/07/17 01:16:47;;;;;;;5.50;4.00;;;;;;;16.38;90.87;100802.81;4854964;29;20072;-80
2023/07/17 01:19:15;;;;;;;4.15;3.75;;;;;;;16.31;91.49;100808.44;4876642;29;20048;-80
2023/07/17 01:22:04;;;;;;;5.53;3.65;;;;;;;16.27;92.43;100812.13;4839527;29;20090;-80
2023/07/17 01:24:31;;;;;;;5.07;3.83;;;;;;;16.23;92.59;100812.34;4884443;29;20136;-80
2023/07/17 01:26:58;;;;;;;4.85;3.85;;;;;;;16.17;92.82;100810.78;4856837;29;20045;-79
2023/07/17 01:29:25;;;;;;;8.00;3.95;;;;;;;16.13;92.87;100817.16;4862110;29;20136;-79
2023/07/17 01:31:51;;;;;;;6.00;4.25;;;;;;;16.05;93.36;100814.81;4879045;29;20092;-79
2023/07/17 01:34:18;;;;;;;6.10;4.13;;;;;;;15.95;93.97;100813.44;4858547;29;21439;-78
2023/07/17 01:36:45;;;;;;;4.88;4.22;;;;;;;15.99;93.80;100814.22;4856961;29;20041;-80
2023/07/17 01:39:12;;;;;;;5.97;4.50;;;;;;;16.03;92.89;100816.66;4855950;29;20381;-80
2023/07/17 01:41:38;;;;;;;5.20;4.28;;;;;;;16.00;93.26;100813.28;4854227;29;20189;-80
2023/07/17 01:44:05;;;;;;;5.85;4.00;;;;;;;15.88;94.09;100813.75;4864414;29;20096;-80
2023/07/17 01:46:32;;;;;;;5.07;4.00;;;;;;;15.91;93.12;100816.31;4864733;29;20052;-79
2023/07/17 01:48:59;;;;;;;4.82;3.72;;;;;;;15.82;93.46;100814.88;4869598;29;20432;-80
2023/07/17 01:51:26;;;;;;;6.90;4.35;;;;;;;15.75;93.81;100813.38;4869564;29;20629;-81
2023/07/17 01:53:53;;;;;;;4.65;3.92;;;;;;;15.64;94.32;100818.28;4880394;29;20040;-79
2023/07/17 01:56:19;;;;;;;5.28;3.83;;;;;;;15.58;94.95;100813.16;4859367;29;20046;-81
2023/07/17 01:58:46;;;;;;;5.57;4.20;;;;;;;15.61;94.84;100811.25;4883323;29;20050;-81
2023/07/17 02:01:13;;;;;;;4.93;4.40;;;;;;;15.62;94.89;100815.66;4858851;29;20457;-80
2023/07/17 02:03:40;;;;;;;4.45;3.88;;;;;;;15.64;94.25;100807.63;4847933;29;20436;-81
2023/07/17 02:06:07;;;;;;;5.68;4.38;;;;;;;15.64;94.47;100818.28;4864833;29;20065;-80
2023/07/17 02:08:34;;;;;;;4.97;3.97;;;;;;;15.46;95.36;100814.47;4869797;29;20595;-81
2023/07/17 02:11:00;;;;;;;5.53;4.32;;;;;;;15.34;96.54;100806.97;4850248;29;20145;-78
2023/07/17 02:13:27;;;;;;;5.10;3.88;;;;;;;15.27;96.78;100805.44;4874219;29;20520;-79
2023/07/17 02:15:54;;;;;;;4.72;4.10;;;;;;;15.25;97.12;100808.16;4872997;29;20133;-80
2023/07/17 02:18:21;;;;;;;6.10;4.50;;;;;;;15.23;97.58;100804.72;4876283;29;20519;-79
2023/07/17 02:20:50;;;;;;;4.57;4.05;;;;;;;15.15;98.46;100815.63;4867939;29;20091;-79
2023/07/17 02:23:17;;;;;;;7.93;4.60;;;;;;;15.15;98.66;100812.97;4873720;29;20128;-79
2023/07/17 02:25:44;;;;;;;5.30;4.18;;;;;;;15.15;99.20;100815.63;4881504;29;20124;-81
2023/07/17 02:28:11;;;;;;;5.65;4.22;;;;;;;15.21;99.03;100810.06;4847873;29;20069;-79
2023/07/17 02:30:37;;;;;;;5.32;4.38;;;;;;;15.31;97.41;100815.06;4878348;29;20049;-79
2023/07/17 02:33:04;;;;;;;5.88;4.90;;;;;;;15.28;97.72;100813.38;4889570;29;20480;-80
2023/07/17 02:35:31;;;;;;;5.07;3.95;;;;;;;15.22;98.60;100816.28;4877462;29;20108;-79
2023/07/17 02:37:58;;;;;;;7.45;4.45;;;;;;;15.20;98.66;100807.47;4845157;29;20064;-80
2023/07/17 02:40:24;;;;;;;6.13;4.60;;;;;;;15.14;98.53;100816.56;4861963;29;20496;-80
2023/07/17 02:42:51;;;;;;;7.47;4.68;;;;;;;15.03;100.00;100818.72;4856116;29;20068;-80
2023/07/17 02:45:18;;;;;;;7.40;4.30;;;;;;;14.96;100.00;100814.53;4879967;29;20041;-79
2023/07/17 02:50:41;;;;;;;6.97;5.13;;;;;;;14.88;100.00;100811.28;4823172;23;20057;-78
2023/07/17 02:53:08;;;;;;;6.90;4.53;;;;;;;14.96;100.00;100816.34;4790400;29;20051;-78
2023/07/17 02:55:35;;;;;;;6.07;5.00;;;;;;;14.91;100.00;100813.84;4804668;29;20047;-78
2023/07/17 02:58:01;;;;;;;6.18;4.38;;;;;;;14.87;100.00;100810.41;4818022;29;20495;-78
2023/07/17 03:00:28;;;;;;;6.22;4.38;;;;;;;14.85;100.00;100820.25;4816848;29;20546;-78
2023/07/17 03:02:55;;;;;;;5.88;4.90;;;;;;;14.80;100.00;100821.38;4776921;29;20484;-78
2023/07/17 03:05:22;;;;;;;6.80;4.40;;;;;;;14.63;100.00;100817.50;4816562;29;20046;-79
2023/07/17 03:07:48;;;;;;;5.50;4.15;;;;;;;14.62;100.00;100813.06;4806883;29;20487;-79
2023/07/17 03:10:15;;;;;;;4.55;4.03;;;;;;;14.73;100.00;100814.53;4816225;29;20070;-78
2023/07/17 03:12:42;;;;;;;8.18;4.43;;;;;;;14.78;100.00;100807.22;4805453;29;20066;-78
2023/07/17 03:15:09;;;;;;;5.30;4.40;;;;;;;14.78;100.00;100808.09;4819915;29;20054;-78
2023/07/17 03:17:35;;;;;;;5.45;4.82;;;;;;;14.65;100.00;100812.13;4811982;29;20176;-78
2023/07/17 03:20:09;;;;;;;5.63;4.57;;;;;;;14.54;100.00;100815.13;4807399;29;20063;-78
2023/07/17 03:22:39;;;;;;;5.15;4.65;;;;;;;14.61;100.00;100821.09;4819364;29;20070;-79
2023/07/17 03:25:06;;;;;;;5.00;4.40;;;;;;;14.57;100.00;100817.69;4794360;29;20081;-79
2023/07/17 03:27:33;;;;;;;5.22;4.20;;;;;;;14.57;100.00;100815.03;4830268;29;20039;-79
2023/07/17 03:30:00;;;;;;;5.97;4.25;;;;;;;14.56;100.00;100817.75;4806648;29;20141;-79
2023/07/17 03:32:31;;;;;;;7.72;4.80;;;;;;;14.60;100.00;100814.94;4796367;29;20066;-79
2023/07/17 03:34:58;;;;;;;9.07;4.70;;;;;;;14.67;100.00;100822.69;4795444;29;20050;-78
2023/07/17 03:37:24;;;;;;;8.38;4.70;;;;;;;14.63;100.00;100813.97;4790179;29;20165;-78
2023/07/17 03:39:51;;;;;;;11.63;5.15;;;;;;;14.63;100.00;100816.63;4798714;29;20071;-79
2023/07/17 03:42:18;;;;;;;10.02;5.07;;;;;;;14.66;100.00;100813.00;4805333;29;20138;-79
2023/07/17 03:44:45;;;;;;;7.07;4.78;;;;;;;14.62;100.00;100822.84;4792620;29;20047;-78
2023/07/17 03:47:12;;;;;;;7.32;4.40;;;;;;;14.63;100.00;100822.81;4808324;29;20051;-78
2023/07/17 03:49:39;;;;;;;5.82;4.63;;;;;;;14.72;100.00;100824.28;4830224;29;20115;-78
2023/07/17 03:52:06;;;;;;;6.63;4.57;;;;;;;14.79;100.00;100819.59;4792633;29;20503;-78
2023/07/17 03:54:33;;;;;;;5.40;4.18;;;;;;;14.89;100.00;100810.41;4780186;29;20077;-78
2023/07/17 03:56:59;;;;;;;8.15;5.60;;;;;;;14.96;100.00;100814.53;4810339;29;20081;-77
2023/07/17 03:59:26;;;;;;;5.65;4.30;;;;;;;14.96;100.00;100814.53;4796151;29;20042;-78
2023/07/17 04:01:53;;;;;;;7.13;5.05;;;;;;;14.97;100.00;100813.66;4807905;29;20131;-78
2023/07/17 04:04:19;;;;;;;6.68;4.28;;;;;;;14.94;100.00;100819.06;4817913;29;20046;-78
2023/07/17 04:06:46;;;;;;;6.60;5.07;;;;;;;15.00;100.00;100821.50;4802773;29;20046;-78
2023/07/17 04:09:15;;;;;;;7.05;5.10;;;;;;;15.11;100.00;100813.13;4802941;29;20380;-78
2023/07/17 04:11:41;;;;;;;6.35;4.63;;;;;;;15.23;100.00;100803.84;4799137;29;20304;-78
2023/07/17 04:14:08;;;;;;;5.78;4.90;;;;;;;15.34;100.00;100814.94;4787541;29;20138;-79
2023/07/17 04:16:36;;;;;;;5.07;4.50;;;;;;;15.39;100.00;100813.00;4803442;29;20452;-78
2023/07/17 04:19:03;;;;;;;5.22;4.72;;;;;;;15.43;100.00;100811.94;4803559;29;20127;-78
2023/07/17 04:21:30;;;;;;;7.53;4.97;;;;;;;15.53;100.00;100815.97;4802673;29;20050;-78
2023/07/17 04:23:56;;;;;;;4.78;4.18;;;;;;;15.58;100.00;100818.47;4810903;29;20065;-78
2023/07/17 04:26:23;;;;;;;5.07;4.07;;;;;;;15.68;100.00;100818.06;4773633;29;20122;-78
2023/07/17 04:28:51;;;;;;;5.95;4.00;;;;;;;15.77;100.00;100825.72;4829517;29;20053;-79
2023/07/17 04:31:18;;;;;;;5.00;4.50;;;;;;;15.86;100.00;100831.59;4809820;29;20042;-78
2023/07/17 04:33:45;;;;;;;6.00;4.30;;;;;;;15.95;100.00;100829.44;4806537;29;20046;-78
2023/07/17 04:36:12;;;;;;;5.85;5.00;;;;;;;16.08;100.00;100829.81;4827613;29;20062;-79
2023/07/17 04:38:38;;;;;;;6.78;4.80;;;;;;;16.25;100.00;100818.47;4807386;29;20125;-77
2023/07/17 04:41:05;;;;;;;6.38;4.13;;;;;;;16.30;100.00;100824.47;4806583;29;20138;-77
2023/07/17 04:43:32;;;;;;;5.82;4.90;;;;;;;16.30;100.00;100814.66;4789018;29;20068;-79
2023/07/17 04:45:59;;;;;;;6.15;5.18;;;;;;;16.14;99.60;100812.69;4803658;29;20041;-78
2023/07/17 04:48:25;;;;;;;5.13;4.47;;;;;;;16.03;99.75;100818.47;4807362;29;20088;-79
2023/07/17 04:50:53;;;;;;;4.55;3.85;;;;;;;16.23;98.54;100807.88;4828353;29;20783;-78
2023/07/17 04:53:20;;;;;;;5.93;4.30;;;;;;;16.38;99.92;100806.34;4803568;29;20039;-78
2023/07/17 04:55:48;;;;;;;5.18;4.32;;;;;;;16.41;99.45;100805.38;4829285;29;20046;-77
2023/07/17 04:58:15;;;;;;;4.78;4.03;;;;;;;16.49;98.51;100812.13;4805326;29;20092;-79
2023/07/17 05:00:45;;;;;;;5.70;4.07;;;;;;;16.51;98.82;100806.72;4800207;29;20413;-79
2023/07/17 05:03:13;;;;;;;6.03;4.22;;;;;;;16.55;98.74;100800.28;4802925;29;20047;-78
2023/07/17 05:05:40;;;;;;;5.50;4.82;;;;;;;16.64;98.16;100817.69;4812950;29;20143;-79
2023/07/17 05:08:07;;;;;;;5.05;4.35;;;;;;;16.62;100.00;100812.44;4786821;29;20146;-79
2023/07/17 05:10:34;;;;;;;6.53;4.53;;;;;;;16.57;100.00;100812.66;4774038;29;20570;-78
2023/07/17 05:13:00;;;;;;;5.38;4.00;;;;;;;16.68;100.00;100817.53;4808113;29;20062;-78
2023/07/17 05:15:27;;;;;;;5.80;4.80;;;;;;;16.88;98.97;100804.19;4826593;29;20701;-79
2023/07/17 05:17:57;;;;;;;7.63;4.72;;;;;;;17.05;99.06;100805.25;4786904;29;20499;-79
2023/07/17 05:20:24;;;;;;;5.40;4.68;;;;;;;17.23;96.74;100803.53;4809558;29;20060;-79
2023/07/17 05:22:50;;;;;;;6.22;4.00;;;;;;;17.21;95.95;100803.63;4815307;29;20042;-80
2023/07/17 05:25:17;;;;;;;4.47;3.97;;;;;;;17.28;94.69;100801.53;4827985;29;20043;-80
2023/07/17 05:27:45;;;;;;;6.78;4.57;;;;;;;17.24;95.48;100798.16;4809996;29;20049;-79
2023/07/17 05:30:12;;;;;;;5.20;4.25;;;;;;;17.25;97.20;100805.22;4801884;29;20047;-80
2023/07/17 05:32:39;;;;;;;6.97;4.75;;;;;;;17.41;98.68;100802.72;4802447;29;20118;-78
2023/07/17 05:35:06;;;;;;;6.18;4.20;;;;;;;17.90;98.17;100806.63;4799658;29;20042;-80
2023/07/17 05:37:33;;;;;;;6.25;4.97;;;;;;;18.38;95.72;100806.94;4829017;29;20480;-79
2023/07/17 05:40:00;;;;;;;5.53;4.60;;;;;;;18.60;93.89;100809.41;4824050;29;20142;-79
2023/07/17 05:42:26;;;;;;;6.47;5.22;;;;;;;18.88;93.58;100803.50;4826294;29;20049;-80
2023/07/17 05:44:53;;;;;;;10.02;6.13;;;;;;;19.68;88.76;100803.66;4809199;29;20051;-79
2023/07/17 05:47:19;;;;;;;12.23;7.35;;;;;;;20.56;82.32;100804.84;4810410;29;20041;-80
2023/07/17 05:49:46;;;;;;;8.73;5.70;;;;;;;22.24;72.01;100805.88;4802903;29;20047;-80
2023/07/17 05:52:13;;;;;;;9.95;4.95;;;;;;;24.28;58.93;100800.38;4805088;29;20046;-80
2023/07/17 05:54:40;;;;;;;7.38;4.55;;;;;;;25.58;53.20;100796.50;4818673;29;20054;-80
2023/07/17 05:57:07;;;;;;;4.45;3.45;;;;;;;26.92;49.22;100800.63;4800643;29;20046;-80
2023/07/17 05:59:34;;;;;;;6.18;4.35;;;;;;;28.04;45.35;100805.97;4807225;29;20053;-80
2023/07/17 06:02:01;;;;;;;5.93;3.78;;;;;;;27.77;45.31;100805.78;4809786;29;20047;-80
2023/07/17 06:04:27;;;;;;;6.45;4.28;;;;;;;26.82;47.28;100805.09;4789412;29;20050;-81
2023/07/17 06:06:54;;;;;;;7.82;4.07;;;;;;;26.83;48.40;100802.28;4799874;29;20051;-82
2023/07/17 06:09:21;;;;;;;5.60;4.20;;;;;;;27.77;45.10;100800.34;4808471;29;20047;-81
2023/07/17 06:11:48;;;;;;;7.55;5.07;;;;;;;28.15;44.37;100796.00;4803256;29;20432;-81
2023/07/17 06:14:15;;;;;;;5.55;3.78;;;;;;;28.17;43.86;100791.28;4818726;29;20176;-81
2023/07/17 06:16:42;;;;;;;6.63;4.30;;;;;;;28.10;44.48;100784.72;4787321;29;20059;-81
2023/07/17 06:19:09;;;;;;;4.95;4.20;;;;;;;27.73;42.51;100794.34;4806732;29;20093;-80
2023/07/17 06:21:36;;;;;;;4.72;3.58;;;;;;;27.42;42.62;100807.06;4801114;29;20068;-80
2023/07/17 06:24:06;;;;;;;4.25;3.85;;;;;;;27.07;43.24;100809.28;4800370;29;20043;-80
2023/07/17 06:26:34;;;;;;;5.07;3.47;;;;;;;26.65;45.50;100820.09;4815593;29;20066;-81
2023/07/17 06:29:01;;;;;;;5.03;3.70;;;;;;;26.65;45.04;100817.41;4787665;29;20400;-81
2023/07/17 06:31:27;;;;;;;5.68;3.80;;;;;;;26.49;44.95;100828.72;4834610;29;20491;-81
2023/07/17 06:33:54;;;;;;;4.97;3.72;;;;;;;26.41;43.81;100822.22;4800358;29;20039;-81
2023/07/17 06:36:21;;;;;;;4.57;3.60;;;;;;;26.45;42.67;100831.78;4803716;29;20141;-81
2023/07/17 06:38:47;;;;;;;4.80;3.50;;;;;;;26.49;42.70;100826.00;4773694;29;20049;-81
2023/07/17 06:41:15;;;;;;;5.45;3.30;;;;;;;26.36;41.30;100833.41;4806140;29;20051;-81
2023/07/17 06:43:43;;;;;;;4.75;3.40;;;;;;;26.13;40.60;100831.75;4817582;29;20046;-80
2023/07/17 06:46:10;;;;;;;4.28;3.53;;;;;;;26.24;42.44;100829.00;4817028;29;20582;-81
2023/07/17 06:48:37;;;;;;;5.68;3.30;;;;;;;26.48;43.06;100829.66;4803567;29;20043;-82
2023/07/17 06:51:04;;;;;;;4.78;3.28;;;;;;;26.65;42.31;100830.94;4808591;29;20047;-80
2023/07/17 06:53:31;;;;;;;3.58;3.20;;;;;;;26.73;42.25;100842.00;4832176;29;20050;-81
2023/07/17 06:55:59;;;;;;;6.18;3.38;;;;;;;26.82;41.07;100838.53;4811973;29;20051;-81
2023/07/17 06:58:27;;;;;;;3.78;3.05;;;;;;;26.91;40.89;100836.88;4819469;29;20078;-80
2023/07/17 07:00:57;;;;;;;3.60;2.97;;;;;;;26.96;40.93;100828.31;4799809;29;20202;-78
2023/07/17 07:03:26;;;;;;;3.35;3.03;;;;;;;27.08;41.39;100820.03;4797220;29;20054;-78
2023/07/17 07:05:56;;;;;;;3.72;2.65;;;;;;;27.21;40.37;100825.22;4827629;29;20058;-79
2023/07/17 07:08:25;;;;;;;4.22;2.85;;;;;;;27.04;40.29;100831.25;4820597;29;20059;-78
2023/07/17 07:10:52;;;;;;;4.32;3.47;;;;;;;26.96;40.55;100833.75;4814211;29;20043;-78
2023/07/17 07:13:20;;;;;;;5.82;3.70;;;;;;;26.95;39.64;100830.19;4798449;29;20752;-78
2023/07/17 07:15:47;;;;;;;5.32;3.38;;;;;;;27.15;40.04;100828.47;4808626;29;20062;-78
2023/07/17 07:18:14;;;;;;;4.07;2.92;;;;;;;27.21;38.75;100825.22;4813371;29;20618;-78
2023/07/17 07:20:40;;;;;;;9.10;3.47;;;;;;;27.40;38.67;100836.16;4803936;29;20068;-78
2023/07/17 07:23:07;;;;;;;4.50;3.03;;;;;;;27.48;38.18;100833.63;4821972;29;20082;-79
2023/07/17 07:25:34;;;;;;;4.22;3.30;;;;;;;27.61;38.27;100832.56;4805546;29;20083;-78
2023/07/17 07:28:01;;;;;;;3.83;3.03;;;;;;;27.54;37.57;100837.66;4838859;29;20074;-78
2023/07/17 07:30:28;;;;;;;5.45;3.03;;;;;;;27.49;37.96;100839.91;4813340;29;20106;-79
2023/07/17 07:32:55;;;;;;;4.45;3.15;;;;;;;27.60;39.23;100839.00;4791827;29;20063;-78
2023/07/17 07:35:22;;;;;;;3.72;3.30;;;;;;;27.76;39.02;100839.38;4811532;29;20037;-78
2023/07/17 07:37:48;;;;;;;4.25;3.20;;;;;;;27.72;38.16;100832.47;4828167;29;20057;-78
2023/07/17 07:40:15;;;;;;;4.88;3.15;;;;;;;27.87;37.66;100836.53;4813279;29;20129;-78
2023/07/17 07:42:42;;;;;;;46.13;9.50;;;;;;;27.98;37.98;100836.41;4815416;29;20062;-78
2023/07/17 07:45:10;;;;;;;4.13;2.90;;;;;;;28.04;35.77;100843.16;4826225;29;20065;-79
2023/07/17 07:47:40;;;;;;;5.00;3.20;;;;;;;28.03;36.29;100845.00;4810161;29;20050;-78
2023/07/17 07:50:07;;;;;;;3.85;3.20;;;;;;;28.00;36.57;100845.31;4808888;29;20055;-79
2023/07/17 07:52:36;;;;;;;4.72;2.97;;;;;;;28.13;36.54;100855.03;4808070;29;20046;-78
2023/07/17 07:55:04;;;;;;;5.28;2.97;;;;;;;27.92;36.02;100852.44;4810361;29;20084;-78
2023/07/17 07:57:30;;;;;;;3.75;2.85;;;;;;;27.67;35.32;100849.19;4810337;29;20047;-78
2023/07/17 07:59:57;;;;;;;4.90;3.42;;;;;;;27.70;35.81;100848.06;4810539;29;20043;-78
2023/07/17 08:02:24;;;;;;;4.30;3.25;;;;;;;27.87;35.72;100847.41;4810510;29;20063;-79
2023/07/17 08:04:54;;;;;;;4.53;3.10;;;;;;;28.04;35.53;100854.03;4823302;29;20046;-79
2023/07/17 08:07:22;;;;;;;4.13;3.10;;;;;;;28.11;35.00;100866.06;4825168;29;20055;-78
2023/07/17 08:09:48;;;;;;;5.78;2.90;;;;;;;28.10;35.70;100860.75;4832580;29;20048;-78
2023/07/17 08:12:15;;;;;;;4.38;3.35;;;;;;;28.18;34.73;100869.06;4818422;29;20049;-79
2023/07/17 08:14:42;;;;;;;3.45;2.95;;;;;;;28.25;34.82;100870.19;4815242;29;20066;-79
2023/07/17 08:17:09;;;;;;;5.40;3.35;;;;;;;28.20;34.81;100867.94;4805783;29;20059;-78
2023/07/17 08:19:35;;;;;;;4.57;2.90;;;;;;;27.83;34.28;100864.09;4807778;29;20043;-78
2023/07/17 08:22:02;;;;;;;13.43;4.20;;;;;;;28.03;34.85;100865.88;4830189;29;20044;-79
2023/07/17 08:24:29;;;;;;;4.70;3.22;;;;;;;28.28;35.10;100868.09;4819918;29;20038;-80
2023/07/17 08:26:55;;;;;;;7.45;4.10;;;;;;;28.34;36.15;100866.69;4822716;29;20050;-79
2023/07/17 08:29:22;;;;;;;5.65;4.22;;;;;;;28.55;36.34;100864.69;4829875;29;20702;-79
2023/07/17 08:31:49;;;;;;;5.68;3.50;;;;;;;28.71;35.62;100861.41;4843011;29;20039;-79
2023/07/17 08:34:17;;;;;;;6.55;4.13;;;;;;;28.91;34.70;100856.00;4842611;29;20050;-79
2023/07/17 08:36:44;;;;;;;5.00;3.45;;;;;;;28.90;35.71;100865.16;4821747;29;20468;-79
2023/07/17 08:39:10;;;;;;;3.90;3.28;;;;;;;28.99;35.60;100869.72;4826465;29;20058;-79
2023/07/17 08:41:41;;;;;;;4.15;3.13;;;;;;;28.83;35.31;100856.66;4812917;29;20074;-79
2023/07/17 08:44:08;;;;;;;6.88;3.58;;;;;;;28.91;35.70;100856.84;4809407;29;20035;-80
2023/07/17 08:46:35;;;;;;;5.32;3.50;;;;;;;28.74;34.86;100854.81;4808545;29;20057;-79
2023/07/17 08:49:02;;;;;;;4.80;3.70;;;;;;;28.56;35.57;100860.13;4807936;29;20509;-79
2023/07/17 08:51:30;;;;;;;4.65;3.05;;;;;;;28.71;35.05;100849.69;4796750;29;20447;-79
2023/07/17 08:53:57;;;;;;;4.85;3.42;;;;;;;29.01;35.11;100846.84;4833661;29;20039;-79
2023/07/17 08:56:44;;;;;;;5.57;3.85;;;;;;;28.91;34.49;100851.41;4830153;29;20053;-78
2023/07/17 08:59:11;;;;;;;4.50;2.83;;;;;;;29.01;34.81;100860.44;4818897;29;20082;-79
2023/07/17 09:01:39;;;;;;;5.60;3.50;;;;;;;29.15;34.04;100853.66;4821659;29;20107;-80
2023/07/17 09:04:06;;;;;;;5.95;3.72;;;;;;;29.25;34.16;100853.63;4816219;29;20129;-79
2023/07/17 09:06:33;;;;;;;4.38;3.53;;;;;;;29.27;33.51;100857.94;4816208;29;20054;-79
2023/07/17 09:09:00;;;;;;;3.53;2.80;;;;;;;29.27;34.16;100846.19;4807739;29;20070;-78
2023/07/17 09:11:27;;;;;;;4.55;2.55;;;;;;;29.24;34.49;100847.31;4810014;29;20582;-78
2023/07/17 09:13:54;;;;;;;3.88;3.10;;;;;;;29.12;33.64;100834.91;4811603;29;20039;-78
2023/07/17 09:16:22;;;;;;;3.92;2.97;;;;;;;29.33;33.74;100841.00;4821380;29;20087;-79
2023/07/17 09:18:51;;;;;;;4.00;3.10;;;;;;;29.30;32.87;100829.56;4811157;29;20498;-78
2023/07/17 09:21:19;;;;;;;4.20;3.30;;;;;;;29.49;34.23;100834.97;4831439;29;20069;-78
2023/07/17 09:23:51;;;;;;;5.50;3.67;;;;;;;29.20;33.17;100829.59;4820283;29;20057;-77
2023/07/17 09:26:20;;;;;;;4.03;2.92;;;;;;;29.53;32.97;100830.94;4821267;29;20054;-79
2023/07/17 09:28:52;;;;;;;4.20;3.45;;;;;;;29.66;33.06;100836.88;4814091;29;20697;-78
2023/07/17 09:31:25;;;;;;;4.15;3.53;;;;;;;29.79;32.79;100832.97;4822832;29;20046;-78
2023/07/17 09:34:01;;;;;;;5.70;3.85;;;;;;;29.91;32.99;100832.59;4807196;29;20039;-78
2023/07/17 09:36:27;;;;;;;5.53;3.13;;;;;;;29.92;31.92;100830.72;4819496;29;20139;-79
2023/07/17 09:38:56;;;;;;;4.05;3.13;;;;;;;30.00;31.92;100839.84;4805942;29;20466;-78
2023/07/17 09:41:26;;;;;;;5.35;3.28;;;;;;;30.02;31.65;100834.28;4807431;29;20049;-78
2023/07/17 09:44:00;;;;;;;4.53;3.22;;;;;;;29.96;31.76;100830.28;4830369;29;20107;-79
2023/07/17 09:46:28;;;;;;;6.30;3.58;;;;;;;29.87;32.33;100830.34;4807403;29;20042;-78
2023/07/17 09:48:55;;;;;;;5.80;3.45;;;;;;;29.83;32.37;100829.78;4806998;29;20038;-79
2023/07/17 09:51:25;;;;;;;4.80;3.30;;;;;;;29.47;31.82;100826.06;4796408;29;20098;-80
2023/07/17 09:53:52;;;;;;;3.65;3.10;;;;;;;29.22;32.33;100829.44;4793417;29;20057;-78
2023/07/17 09:56:20;;;;;;;6.13;3.30;;;;;;;29.01;31.68;100827.78;4818008;29;20088;-79
2023/07/17 09:58:48;;;;;;;4.50;3.13;;;;;;;29.17;31.04;100830.72;4826582;29;20042;-78
2023/07/17 10:01:19;;;;;;;10.13;4.80;;;;;;;29.14;31.01;100820.16;4825460;29;20055;-78
2023/07/17 10:03:48;;;;;;;5.95;3.15;;;;;;;29.48;31.63;100816.03;4794295;29;20134;-78
2023/07/17 10:06:16;;;;;;;4.38;3.42;;;;;;;29.77;31.29;100807.75;4811632;29;20039;-79
2023/07/17 10:08:49;;;;;;;5.78;3.63;;;;;;;29.22;30.97;100819.41;4817480;29;20047;-79
2023/07/17 10:11:16;;;;;;;4.82;3.15;;;;;;;29.29;31.46;100812.38;4824014;29;20077;-78
2023/07/17 10:13:45;;;;;;;5.55;3.47;;;;;;;29.55;31.17;100820.75;4818119;29;20102;-78
2023/07/17 10:16:15;;;;;;;5.28;3.30;;;;;;;29.23;30.91;100834.72;4809488;29;20100;-79
2023/07/17 10:18:49;;;;;;;4.45;3.05;;;;;;;29.08;31.59;100828.88;4830502;29;20038;-79
2023/07/17 10:21:17;;;;;;;5.57;3.00;;;;;;;28.56;30.60;100820.19;4821659;29;20353;-78
2023/07/17 10:23:46;;;;;;;5.25;3.05;;;;;;;28.32;31.33;100830.63;4795406;29;20058;-79
2023/07/17 10:26:16;;;;;;;5.88;3.55;;;;;;;28.21;32.24;100834.31;4808144;29;21067;-80
2023/07/17 10:28:48;;;;;;;5.45;3.58;;;;;;;27.99;32.26;100829.97;4803921;29;20047;-80
2023/07/17 10:31:25;;;;;;;7.63;3.40;;;;;;;28.38;32.31;100823.78;4827575;29;20046;-79
2023/07/17 10:34:00;;;;;;;4.00;3.30;;;;;;;28.35;33.51;100830.38;4817800;29;20463;-81
2023/07/17 10:36:41;;;;;;;7.68;3.70;;;;;;;27.91;33.53;100829.81;4826630;29;20482;-79
2023/07/17 10:39:13;;;;;;;4.72;2.83;;;;;;;27.74;34.14;100838.63;4813513;29;20050;-79
2023/07/17 10:41:41;;;;;;;4.78;3.60;;;;;;;27.33;34.68;100837.72;4812804;29;20093;-80
2023/07/17 10:44:08;;;;;;;4.35;3.28;;;;;;;27.13;35.85;100839.47;4802920;29;20047;-79
2023/07/17 10:46:37;;;;;;;5.55;3.78;;;;;;;26.75;35.82;100845.47;4791081;29;20134;-80
2023/07/17 10:49:15;;;;;;;5.80;3.35;;;;;;;26.90;36.22;100844.13;4816487;29;20144;-79
2023/07/17 10:51:49;;;;;;;5.68;3.10;;;;;;;26.88;36.58;100837.13;4795740;29;20418;-80
2023/07/17 10:54:17;;;;;;;3.67;3.22;;;;;;;26.88;36.01;100846.09;4802889;29;20054;-80
2023/07/17 10:56:46;;;;;;;4.57;3.10;;;;;;;26.87;35.86;100844.41;4772443;29;20104;-81
2023/07/17 10:59:14;;;;;;;6.10;3.10;;;;;;;26.84;35.92;100835.69;4806469;29;20039;-81
2023/07/17 11:01:44;;;;;;;5.28;3.05;;;;;;;26.55;35.87;100835.44;4799026;29;20610;-80
2023/07/17 11:04:10;;;;;;;5.55;3.17;;;;;;;26.33;35.45;100826.41;4772961;29;20119;-81
2023/07/17 11:06:37;;;;;;;5.47;3.08;;;;;;;26.30;36.52;100829.34;4830844;29;20042;-80
2023/07/17 11:09:04;;;;;;;6.45;3.35;;;;;;;26.16;35.99;100823.38;4773830;29;20145;-80
2023/07/17 11:11:31;;;;;;;6.35;3.13;;;;;;;26.10;36.59;100828.31;4801511;29;20049;-81
2023/07/17 11:13:58;;;;;;;18.13;3.92;;;;;;;25.99;36.50;100836.47;4809611;29;20047;-81
2023/07/17 11:16:25;;;;;;;7.15;4.00;;;;;;;25.86;37.21;100840.28;4786390;29;20063;-80
2023/07/17 11:18:53;;;;;;;4.50;3.17;;;;;;;25.88;38.34;100836.47;4794312;29;20058;-80
2023/07/17 11:21:22;;;;;;;4.47;3.70;;;;;;;26.06;37.85;100840.38;4830881;29;20039;-81
2023/07/17 11:23:53;;;;;;;7.60;3.13;;;;;;;26.14;38.23;100847.84;4787074;29;20043;-81
2023/07/17 11:26:23;;;;;;;5.75;3.60;;;;;;;26.33;36.64;100845.34;4801015;29;20100;-81
2023/07/17 11:28:54;;;;;;;5.32;3.42;;;;;;;26.33;37.25;100844.50;4799650;29;20049;-82